• Join FlightAware (Why Join?)
  • Login
  • US Flag 
10:40PM EST


 

Airport Tracker/Info


-or-


 

Live Flight TrackerFlight Track Log ✈ SWA378 ✈ 23-May-2013 ✈ KLAX - KATL

Flight Track Log - Related Links

Times and Time Zones

All times are in EDT time to prevent confusion due to time zone crossing. See the SWA378 flight status page for this flight to view local times or setup timezone preferences in your user account.

Time Position Orientation Groundspeed Altitude Reporting Facility
EDT Latitude Longitude Course Direction KTS MPH feet Rate Location/Type
01:34PM 33.8781 -118.5019 202° Southwest 228 262 3,500  Level Los Angeles Center
01:35PM 33.8067 -118.5089 90° East 266 306 5,700 2,760 Climbing Los Angeles Center
01:36PM 33.8858 -118.6524 188° South  Level FlightAware Approximate
01:36PM 33.7281 -118.5175 185° South 285 328 9,300  Level Los Angeles Center
01:37PM 33.6672 -118.4222 127° Southeast 342 394 12,000 2,400 Climbing Los Angeles Center
01:39PM 33.6333 -118.2086 90° East  Level FlightAware Approximate
01:39PM 33.6572 -118.1758 93° East 391 450 16,800  Level Los Angeles Center
01:41PM 33.6561 -118.0133 90° East 408 470 19,700 2,400 Climbing Los Angeles Center
01:42PM 33.6547 -117.8703 91° East 427 491 21,800 1,920 Climbing Los Angeles Center
01:43PM 33.6334 -117.7699 90° East  Level FlightAware Approximate
01:43PM 33.6539 -117.7233 90° East 440 506 23,800  Level Los Angeles Center
01:44PM 33.6511 -117.5731 91° East 449 517 25,900 1,800 Climbing Los Angeles Center
01:45PM 33.6494 -117.4175 91° East 461 531 27,600 1,560 Climbing Los Angeles Center
01:46PM 33.6467 -117.2597 91° East 470 541 29,200 1,740 Climbing Los Angeles Center
01:47PM 33.6447 -117.0678 91° East 479 551 31,300 1,800 Climbing Los Angeles Center
01:48PM 33.6711 -116.9125 78° East 477 549 33,000 1,440 Climbing Los Angeles Center
01:49PM 33.6950 -116.7519 80° East 478 550 34,300 1,200 Climbing Los Angeles Center
01:50PM 33.7178 -116.5942 80° East 478 550 35,600 1,260 Climbing Los Angeles Center
01:51PM 33.7389 -116.4369 81° East 477 549 37,000 660 Climbing Los Angeles Center
01:52PM 33.7603 -116.2836 80° East 470 541 37,000  Level Los Angeles Center
01:53PM 33.7833 -116.0994 81° East 465 535 37,000  Level Los Angeles Center
01:54PM 33.8033 -115.9444 81° East 467 537 37,000  Level Los Angeles Center
01:55PM 33.8233 -115.7936 81° East 459 528 37,000  Level Los Angeles Center
01:56PM 33.8428 -115.6408 81° East 461 531 37,000  Level Los Angeles Center
01:57PM 33.8628 -115.4881 81° East 463 533 37,000  Level Los Angeles Center
01:58PM 33.8817 -115.3361 81° East 460 529 37,000  Level Los Angeles Center
01:59PM 33.9042 -115.1528 82° East 461 531 37,000  Level Los Angeles Center
02:00PM 33.9239 -115.0019 81° East 458 527 37,000  Level Los Angeles Center
02:01PM 33.9439 -114.8497 81° East 460 529 37,000  Level Los Angeles Center
02:02PM 33.9639 -114.6978 81° East 459 528 37,000  Level Los Angeles Center
02:03PM 33.9803 -114.5453 83° East 459 528 37,000  Level Los Angeles Center
02:04PM 33.9992 -114.3947 81° East 457 526 37,000  Level Los Angeles Center
02:05PM 34.0197 -114.2133 82° East 457 526 37,000  Level Los Angeles Center
02:06PM 34.0394 -114.0614 81° East 457 526 37,000  Level Los Angeles Center
02:07PM 34.0547 -113.9078 83° East 463 533 37,000  Level Los Angeles Center
02:08PM 34.0725 -113.7567 82° East 459 528 37,000  Level Los Angeles Center
02:09PM 34.0936 -113.5908 81° East 462 532 37,000  Level Los Angeles Center
02:10PM 34.1081 -113.4561 83° East 459 528 37,000  Level Albuquerque Center
02:11PM 34.1253 -113.3025 82° East 461 531 37,000  Level Albuquerque Center
02:12PM 34.1414 -113.1514 83° East 458 527 37,000  Level Albuquerque Center
02:13PM 34.1572 -113.0006 83° East 456 525 37,000  Level Albuquerque Center
02:15PM 34.1733 -112.8503 83° East 453 521 37,000  Level Albuquerque Center
02:16PM 34.1919 -112.6686 83° East 454 522 37,000  Level Albuquerque Center
02:17PM 34.2094 -112.5183 82° East 452 520 37,000  Level Albuquerque Center
02:18PM 34.2244 -112.3683 83° East 450 518 37,000  Level Albuquerque Center
02:19PM 34.2394 -112.2164 83° East 452 520 37,000  Level Albuquerque Center
02:20PM 34.2550 -112.0658 83° East 451 519 37,000  Level Albuquerque Center
02:21PM 34.2703 -111.9136 83° East 451 519 37,000  Level Albuquerque Center
02:22PM 34.2847 -111.7619 83° East 451 519 37,000  Level Albuquerque Center
02:23PM 34.2997 -111.6106 83° East 450 518 37,000  Level Albuquerque Center
02:24PM 34.3142 -111.4592 83° East 450 518 37,000  Level Albuquerque Center
02:25PM 34.3369 -111.2806 81° East 448 516 37,000  Level Albuquerque Center
02:26PM 34.3581 -111.1317 80° East 448 516 37,000  Level Albuquerque Center
02:27PM 34.3761 -110.9806 82° East 452 520 37,000  Level Albuquerque Center
02:28PM 34.3961 -110.8300 81° East 453 521 37,000  Level Albuquerque Center
02:29PM 34.4197 -110.6775 79° East 459 528 37,000  Level Albuquerque Center
02:30PM 34.4392 -110.5275 81° East 454 522 37,000  Level Albuquerque Center
02:31PM 34.4600 -110.3386 82° East 467 537 37,000  Level Albuquerque Center
02:32PM 34.4781 -110.1922 81° East 463 533 37,000  Level Albuquerque Center
02:33PM 34.4964 -110.0458 81° East 461 531 37,000  Level Albuquerque Center
02:34PM 34.5167 -109.8736 82° East 461 531 37,000  Level Albuquerque Center
02:35PM 34.5342 -109.7250 82° East 464 534 37,000  Level Albuquerque Center
02:36PM 34.5553 -109.5519 82° East 464 534 37,000  Level Albuquerque Center
02:37PM 34.5731 -109.4078 81° East 458 527 37,000  Level Albuquerque Center
02:38PM 34.5936 -109.2336 82° East 463 533 37,000  Level Albuquerque Center
02:39PM 34.6097 -109.0842 82° East 468 539 37,000  Level Albuquerque Center
02:40PM 34.6297 -108.9111 82° East 467 537 37,000  Level Albuquerque Center
02:41PM 34.6456 -108.7614 83° East 467 537 37,000  Level Albuquerque Center
02:42PM 34.6650 -108.5878 82° East 466 536 37,000  Level Albuquerque Center
02:43PM 34.6803 -108.4431 83° East 462 532 37,000  Level Albuquerque Center
02:44PM 34.6967 -108.2875 83° East 463 533 37,000  Level Albuquerque Center
02:45PM 34.7131 -108.1339 83° East 460 529 37,000  Level Albuquerque Center
02:46PM 34.7292 -107.9797 83° East 461 531 37,000  Level Albuquerque Center
02:47PM 34.7442 -107.8231 83° East 465 535 37,000  Level Albuquerque Center
02:49PM 34.7642 -107.6364 83° East 465 535 37,000  Level Albuquerque Center
02:50PM 34.7792 -107.4806 83° East 468 539 37,000  Level Albuquerque Center
02:51PM 34.7942 -107.3228 83° East 471 542 37,000  Level Albuquerque Center
02:52PM 34.8094 -107.1669 83° East 469 540 37,000  Level Albuquerque Center
02:53PM 34.8236 -107.0106 84° East 470 541 37,000  Level Albuquerque Center
02:54PM 34.8381 -106.8547 84° East 471 542 37,000  Level Albuquerque Center
02:55PM 34.8561 -106.6761 83° East 453 521 37,000  Level Albuquerque Center
02:56PM 34.8714 -106.5156 83° East 467 537 37,000  Level Albuquerque Center
02:57PM 34.8850 -106.3544 84° East 479 551 37,000  Level Albuquerque Center
02:58PM 34.8978 -106.1969 84° East 473 544 37,000  Level Albuquerque Center
02:59PM 34.9125 -106.0397 83° East 471 542 37,000  Level Albuquerque Center
03:00PM 34.9297 -105.8439 84° East 474 545 37,000  Level Albuquerque Center
03:01PM 34.9433 -105.6806 84° East 480 552 37,000  Level Albuquerque Center
03:02PM 34.9567 -105.5164 84° East 483 556 37,000  Level Albuquerque Center
03:03PM 34.9711 -105.3533 84° East 481 554 37,000  Level Albuquerque Center
03:04PM 34.9836 -105.1892 85° East 482 555 37,000  Level Albuquerque Center
03:05PM 34.9975 -105.0264 84° East 482 555 37,000  Level Albuquerque Center
03:06PM 35.0100 -104.8625 85° East 482 555 37,000  Level Albuquerque Center
03:07PM 35.0233 -104.6989 84° East 483 556 37,000  Level Albuquerque Center
03:08PM 35.0375 -104.5106 85° East 477 549 37,000  Level Albuquerque Center
03:09PM 35.0494 -104.3483 85° East 480 552 37,000  Level Albuquerque Center
03:10PM 35.0606 -104.1864 85° East 482 555 37,000  Level Albuquerque Center
03:11PM 35.0747 -104.0353 83° East 483 556 37,000  Level Albuquerque Center
03:12PM 35.0853 -103.8628 86° East 481 554 37,000  Level Albuquerque Center
03:13PM 35.0967 -103.7008 85° East 479 551 37,000  Level Albuquerque Center
03:14PM 35.1094 -103.5111 85° East 478 550 37,000  Level Albuquerque Center
03:15PM 35.1203 -103.3497 85° East 476 548 37,000  Level Albuquerque Center
03:16PM 35.1311 -103.1869 85° East 477 549 37,000  Level Albuquerque Center
03:17PM 35.1414 -103.0222 86° East 481 554 37,000  Level Albuquerque Center
03:18PM 35.1503 -102.8719 86° East 482 555 37,000  Level Albuquerque Center
03:19PM 35.1611 -102.6756 86° East 483 556 37,000  Level Albuquerque Center
03:20PM 35.1714 -102.5108 86° East 486 559 37,000  Level Albuquerque Center
03:21PM 35.1817 -102.3461 86° East 487 560 37,000  Level Albuquerque Center
03:23PM 35.1897 -102.1819 87° East 487 560 37,000  Level Albuquerque Center
03:24PM 35.1983 -102.0175 86° East 487 560 37,000  Level Albuquerque Center
03:25PM 35.2100 -101.8319 86° East 491 565 37,000  Level Albuquerque Center
03:26PM 35.2194 -101.6644 86° East 491 565 37,000  Level Albuquerque Center
03:27PM 35.2275 -101.5139 86° East 487 560 37,000  Level Albuquerque Center
03:28PM 35.2367 -101.3131 87° East 491 565 37,000  Level Albuquerque Center
03:29PM 35.2450 -101.1372 87° East 490 564 37,000  Level Albuquerque Center
03:30PM 35.2528 -100.9717 87° East 490 564 37,000  Level Albuquerque Center
03:31PM 35.2600 -100.8069 87° East 488 562 37,000  Level Albuquerque Center
03:32PM 35.2664 -100.6475 87° East 491 565 37,000  Level Albuquerque Center
03:33PM 35.2744 -100.4828 87° East 487 560 37,000  Level Albuquerque Center
03:34PM 35.2817 -100.2847 87° East 486 559 37,000  Level Albuquerque Center
03:35PM 35.2878 -100.1189 87° East 488 562 37,000  Level Albuquerque Center
03:36PM 35.2956 -99.9522 87° East 489 563 37,000  Level Albuquerque Center
03:37PM 35.3008 -99.7839 88° East 493 567 37,000  Level Albuquerque Center
03:38PM 35.3067 -99.6158 88° East 495 570 37,000  Level Albuquerque Center
03:39PM 35.3114 -99.4481 88° East 495 570 37,000  Level Albuquerque Center
03:40PM 35.3178 -99.2403 88° East 494 568 37,000  Level Fort Worth Center
03:41PM 35.3242 -99.0725 87° East 494 568 37,000  Level Fort Worth Center
03:42PM 35.3283 -98.9047 88° East 494 568 37,000  Level Fort Worth Center
03:43PM 35.3325 -98.7392 88° East 494 568 37,000  Level Fort Worth Center
03:44PM 35.3383 -98.5764 87° East 489 563 37,000  Level Fort Worth Center
03:45PM 35.3417 -98.4342 88° East 474 545 37,000  Level Fort Worth Center
03:46PM 35.3428 -98.2711 89° East 474 545 37,000  Level Fort Worth Center
03:47PM 35.3397 -98.1033 91° East 474 545 37,000  Level Fort Worth Center
03:48PM 35.3383 -97.9403 91° East 479 551 37,000  Level Fort Worth Center
03:49PM 35.3369 -97.7750 91° East 479 551 37,000  Level Fort Worth Center
03:50PM 35.3353 -97.6119 91° East 479 551 37,000  Level Fort Worth Center
03:51PM 35.3333 -97.4289 91° East 489 563 37,000  Level Fort Worth Center
03:52PM 35.3353 -97.2633 89° East 489 563 37,000  Level Fort Worth Center
03:53PM 35.3267 -97.1056 94° East 479 551 37,000  Level Fort Worth Center
03:54PM 35.3242 -96.9453 91° East 474 545 37,000  Level Fort Worth Center
03:55PM 35.3211 -96.7850 91° East 469 540 37,000  Level Fort Worth Center
03:56PM 35.3183 -96.6300 91° East 463 533 37,000  Level Fort Worth Center
03:57PM 35.3150 -96.4697 91° East 457 526 37,000  Level Fort Worth Center
03:58PM 35.3139 -96.3144 90° East 457 526 37,000  Level Fort Worth Center
03:59PM 35.3083 -96.1569 92° East 457 526 37,100 600 Climbing Fort Worth Center
04:00PM 35.3044 -95.9992 92° East 457 526 38,300 900 Climbing Fort Worth Center
04:01PM 35.3047 -95.8567 90° East 457 526 39,000 300 Climbing Fort Worth Center
04:02PM 35.2986 -95.6942 93° East 462 532 39,000  Level Fort Worth Center
04:04PM 35.2906 -95.4192 92° East 443 510 39,000  Level Memphis Center
04:05PM 35.2864 -95.2586 92° East 461 531 39,000  Level Memphis Center
04:06PM 35.2822 -95.0983 92° East 466 536 39,000  Level Memphis Center
04:07PM 35.2758 -94.9375 93° East 466 536 39,000  Level Memphis Center
04:08PM 35.2733 -94.7772 91° East 471 542 39,000  Level Memphis Center
04:09PM 35.2650 -94.5964 93° East 471 542 39,000  Level Memphis Center
04:10PM 35.2578 -94.4358 93° East 476 548 39,000  Level Memphis Center
04:11PM 35.2525 -94.2728 92° East 482 555 39,000  Level Memphis Center
04:12PM 35.2472 -94.1122 92° East 482 555 39,000  Level Memphis Center
04:13PM 35.2394 -93.9492 93° East 482 555 39,000  Level Memphis Center
04:14PM 35.2336 -93.7889 93° East 482 555 39,000  Level Memphis Center
04:15PM 35.2275 -93.6258 93° East 482 555 39,000  Level Memphis Center
04:16PM 35.2192 -93.4578 93° East 482 555 39,000  Level Memphis Center
04:17PM 35.2167 -93.3003 91° East 476 548 39,000  Level Memphis Center
04:18PM 35.2061 -93.1269 94° East 482 555 39,000  Level Memphis Center
04:19PM 35.1992 -92.9667 93° East 487 560 39,000  Level Memphis Center
04:20PM 35.1903 -92.7911 93° East 487 560 39,000  Level Memphis Center
04:21PM 35.1806 -92.6436 95° East 487 560 39,000  Level Memphis Center
04:22PM 35.1731 -92.4783 93° East 492 566 39,000  Level Memphis Center
04:23PM 35.1631 -92.3128 94° East 492 566 39,000  Level Memphis Center
04:24PM 35.1553 -92.1475 93° East 492 566 39,000  Level Memphis Center
04:25PM 35.1450 -91.9822 94° East 487 560 39,000  Level Memphis Center
04:26PM 35.1344 -91.8172 94° East 487 560 39,000  Level Memphis Center
04:27PM 35.1258 -91.6494 94° East 487 560 39,000  Level Memphis Center
04:28PM 35.1169 -91.4817 94° East 487 560 39,000  Level Memphis Center
04:29PM 35.1081 -91.3014 93° East 482 555 39,000  Level Memphis Center
04:30PM 35.0967 -91.1364 95° East 482 555 39,000  Level Memphis Center
04:31PM 35.0850 -90.9864 95° East 482 555 39,000  Level Memphis Center
04:32PM 35.0772 -90.8519 94° East 487 560 39,000  Level Memphis Center
04:33PM 35.0656 -90.6539 94° East 487 560 39,000  Level Memphis Center
04:34PM 35.0531 -90.4889 95° East 487 560 39,000  Level Memphis Center
04:35PM 35.0428 -90.3217 94° East 494 568 39,000  Level Memphis Center
04:36PM 35.0300 -90.1492 95° East 500 575 39,000  Level Memphis Center
04:37PM 35.0172 -89.9667 95° East 500 575 39,000  Level Memphis Center
04:38PM 34.9978 -89.7994 98° East 500 575 39,000  Level Memphis Center
04:39PM 34.9697 -89.6222 101° East 518 596 39,000  Level Memphis Center
04:40PM 34.9394 -89.4578 103° East 507 583 39,000  Level Memphis Center
04:41PM 34.9172 -89.3111 100° East 495 570 39,000  Level Memphis Center
04:42PM 34.8908 -89.1519 101° East 490 564 39,000 -300 Level Memphis Center
04:43PM 34.8661 -88.9853 100° East 490 564 38,500 -720 Descending Memphis Center
04:44PM 34.8392 -88.8214 101° East 490 564 37,600 -960 Descending Memphis Center
04:45PM 34.8139 -88.6447 100° East 508 585 36,600 -1,020 Descending Memphis Center
04:46PM 34.7864 -88.4631 100° East 508 585 35,600 -960 Descending Memphis Center
04:47PM 34.7564 -88.2894 102° East 503 579 34,700 -960 Descending Memphis Center
04:48PM 34.7303 -88.1106 100° East 517 595 33,700 -960 Descending Memphis Center
04:49PM 34.7019 -87.9397 101° East 525 604 32,800 -960 Descending Memphis Center
04:50PM 34.6736 -87.7686 101° East 520 598 31,800 -900 Descending Memphis Center
04:51PM 34.6469 -87.6028 101° East 508 585 31,000 -300 Descending Memphis Center
04:53PM 34.5886 -87.2811 102° East 490 564 31,000  Level Atlanta Center
04:54PM 34.5611 -87.1236 102° East 496 571 31,000  Level Atlanta Center
04:55PM 34.5297 -86.9586 103° East 496 571 31,000 -180 Level Atlanta Center
04:56PM 34.4981 -86.7961 103° East 496 571 30,700 -1,140 Descending Atlanta Center
04:57PM 34.4681 -86.6439 103° East 478 550 28,800 -1,740 Descending Atlanta Center
04:58PM 34.4378 -86.4944 104° East 466 536 27,300 -1,260 Descending Atlanta Center
04:59PM 34.4008 -86.3475 107° East 453 521 26,300 -1,020 Descending Atlanta Center
05:00PM 34.3681 -86.2056 106° East 448 516 25,300 -1,020 Descending Atlanta Center
05:01PM 34.3369 -86.0639 105° East 443 510 24,300 -660 Descending Atlanta Center
05:02PM 34.3039 -85.9197 105° East 438 504 24,000 -180 Descending Atlanta Center
05:03PM 34.2683 -85.7706 106° East 438 504 24,000  Level Atlanta Center
05:04PM 34.2347 -85.6267 106° East 433 498 24,000 -660 Level Atlanta Center
05:05PM 34.1989 -85.4881 107° East 433 498 22,700 -2,280 Descending Atlanta Center
05:06PM 34.1653 -85.3417 105° East 443 510 19,500 -3,240 Descending Atlanta Center
05:07PM 34.1311 -85.2008 106° East 443 510 16,300 -2,700 Descending Atlanta Center
05:08PM 34.0989 -85.0722 107° East 443 510 14,100 -1,440 Descending Atlanta Center
05:09PM 34.0414 -84.9614 122° Southeast 421 484 13,500 -840 Descending Atlanta Center
05:10PM 33.9689 -84.8731 135° Southeast 384 442 12,500 -780 Descending Atlanta Center
05:11PM 33.8964 -84.7797 133° Southeast 376 433 12,000 -360 Descending Atlanta Center
05:11PM 33.8500 -84.7000 125° Southeast 372 428 12,000  Level Atlanta TRACON
05:12PM 33.7667 -84.6167 140° Southeast 362 417 12,000 -120 Level Atlanta TRACON
05:13PM 33.7333 -84.5333 116° Southeast 301 346 11,800 -900 Descending Atlanta TRACON
05:14PM 33.7333 -84.4333 90° East 292 336 10,300 -1,500 Descending Atlanta TRACON
05:15PM 33.7333 -84.3500 90° East 251 289 8,800 -1,440 Descending Atlanta TRACON
05:16PM 33.7333 -84.2833 90° East 210 242 7,500 -1,320 Descending Atlanta TRACON
05:17PM 33.7167 -84.2333 112° Southeast 197 227 6,200 -1,440 Descending Atlanta TRACON
05:18PM 33.6667 -84.2500 196° South 161 185 4,700 -1,500 Descending Atlanta TRACON
05:19PM 33.6500 -84.2833 239° Southwest 145 167 3,200 -1,260 Descending Atlanta TRACON
05:20PM 33.6500 -84.3333 270° West 134 154 2,200 -900 Descending Atlanta TRACON
05:21PM 33.6500 -84.3833 270° West 136 157 1,500 -720 Descending Atlanta TRACON
05:23PM 33.6333 -84.4167 241° Southwest  Level FlightAware Approximate
05:30PM 33.6367 -84.4279 241° Southwest  Level Estimated
05:31PM 33.6367 -84.4279 241° Southwest  Level Estimated